Portada
METAR-TAF:

METAR-TAF

Aeropuertos :

Pemba, Mozambique

latitud: 12-59S, longitud: 040-32E, altitud: 101 m

Observación

El informe se hizo hace 11 horas y 1 minutos, a las 18:00 UTC
Viento 8 kt del este
Temperatura 25°C
Humedad 89%
Presión 1016 hPa
Visibilidad 10 km o más
Escasas nubes a una altura de 2000 ft

METAR: FQPB 271800Z 08008KT 9999 FEW020 25/23 Q1016

Hora: 07:01 (05:01 UTC)

Pronóstico

El informe se hizo hace 7 horas y 1 minutos, a las 22:00 UTC
Pronóstico válido del 28 a las 00 UTC al 28 a las 24 UTC
Viento 8 kt del sur-suroeste
Visibilidad 10 km o más
Escasas nubes a una altura de 1800 ft
Evolucionando progresivamente
del 28 a las 06 UTC al 28 a las 08 UTC
Viento 6 kt del sur-sureste
Evolucionando progresivamente
del 28 a las 12 UTC al 28 a las 14 UTC
Viento 10 kt del este

TAF: FQPB 272200Z 2800/2824 20008KT 9999 FEW018 TX30/2813Z TN20/2803Z BECMG 2806/2808 16006KT BECMG 2812/2814 10010KT

Observaciones y pronósticos meteorológicos de más de 4000 aeropuertos (mensajes METAR y TAF).

Los puntos amarillos y rojos representan las estaciones disponibles.

Ponga el ratón en el punto deseado para ver el nombre de la estación.

Haga clic para ver las observaciones y los pronósticos meteorológicos.

Para cambiar el mapa : haga clic en los botones verdes con una cruz de color negro para hacer un zoom, en el botón verde con un guión para alejar o en las flechas verdes para mapas adyacentes.


METAR-TAF: